sensor_id;sensor_type;location;lat;lon;timestamp;pressure;altitude;pressure_sealevel;temperature;humidity
44992;BME280;56865;51.618;7.406;2022-10-14T00:01:31;100778.81;;;22.10;100.00
44992;BME280;56865;51.618;7.406;2022-10-14T00:04:01;100776.47;;;21.41;100.00
44992;BME280;56865;51.618;7.406;2022-10-14T00:06:32;100781.13;;;21.75;100.00
44992;BME280;56865;51.618;7.406;2022-10-14T00:09:03;100774.78;;;21.92;100.00
44992;BME280;56865;51.618;7.406;2022-10-14T00:11:36;100771.84;;;21.62;100.00
44992;BME280;56865;51.618;7.406;2022-10-14T00:14:10;100770.38;;;21.99;100.00
44992;BME280;56865;51.618;7.406;2022-10-14T00:16:41;100763.25;;;21.60;100.00
44992;BME280;56865;51.618;7.406;2022-10-14T00:19:11;100757.28;;;21.52;100.00
44992;BME280;56865;51.618;7.406;2022-10-14T00:21:42;100754.47;;;21.69;100.00
44992;BME280;56865;51.618;7.406;2022-10-14T00:24:12;100758.53;;;21.84;100.00
44992;BME280;56865;51.618;7.406;2022-10-14T00:26:45;100753.38;;;21.81;100.00
44992;BME280;56865;51.618;7.406;2022-10-14T00:29:15;100749.59;;;21.97;100.00
44992;BME280;56865;51.618;7.406;2022-10-14T00:31:45;100749.69;;;21.94;100.00
44992;BME280;56865;51.618;7.406;2022-10-14T00:34:17;100748.97;;;21.84;100.00
44992;BME280;56865;51.618;7.406;2022-10-14T00:36:46;100764.63;;;21.80;100.00
44992;BME280;56865;51.618;7.406;2022-10-14T00:39:16;100755.72;;;21.95;100.00
44992;BME280;56865;51.618;7.406;2022-10-14T00:41:48;100752.97;;;22.02;100.00
44992;BME280;56865;51.618;7.406;2022-10-14T00:47:02;100756.94;;;21.73;100.00
44992;BME280;56865;51.618;7.406;2022-10-14T00:49:33;100762.69;;;21.91;100.00
44992;BME280;56865;51.618;7.406;2022-10-14T00:52:06;100765.47;;;21.82;100.00
44992;BME280;56865;51.618;7.406;2022-10-14T00:54:40;100754.78;;;21.97;100.00
44992;BME280;56865;51.618;7.406;2022-10-14T01:03:26;100758.03;;;22.08;100.00
44992;BME280;56865;51.618;7.406;2022-10-14T01:05:58;100763.31;;;22.05;100.00
44992;BME280;56865;51.618;7.406;2022-10-14T01:08:30;100759.56;;;22.20;100.00
44992;BME280;56865;51.618;7.406;2022-10-14T01:11:04;100763.13;;;22.16;100.00
44992;BME280;56865;51.618;7.406;2022-10-14T01:13:36;100770.72;;;22.26;100.00
44992;BME280;56865;51.618;7.406;2022-10-14T01:16:11;100769.56;;;22.42;100.00
44992;BME280;56865;51.618;7.406;2022-10-14T01:18:51;100773.75;;;22.49;100.00
44992;BME280;56865;51.618;7.406;2022-10-14T01:21:27;100771.50;;;22.29;100.00
44992;BME280;56865;51.618;7.406;2022-10-14T01:24:21;100760.78;;;22.48;100.00
44992;BME280;56865;51.618;7.406;2022-10-14T01:26:58;100761.94;;;22.31;100.00
44992;BME280;56865;51.618;7.406;2022-10-14T01:32:26;100754.53;;;22.13;100.00
44992;BME280;56865;51.618;7.406;2022-10-14T01:34:58;100750.78;;;22.26;100.00
44992;BME280;56865;51.618;7.406;2022-10-14T01:37:30;100749.09;;;22.25;100.00
44992;BME280;56865;51.618;7.406;2022-10-14T01:40:03;100757.78;;;22.24;100.00
44992;BME280;56865;51.618;7.406;2022-10-14T01:42:35;100745.66;;;22.23;100.00
44992;BME280;56865;51.618;7.406;2022-10-14T01:45:08;100745.63;;;22.24;100.00
44992;BME280;56865;51.618;7.406;2022-10-14T01:47:42;100746.25;;;22.39;100.00
44992;BME280;56865;51.618;7.406;2022-10-14T01:50:13;100737.16;;;22.15;100.00
44992;BME280;56865;51.618;7.406;2022-10-14T01:52:44;100738.56;;;22.31;100.00
44992;BME280;56865;51.618;7.406;2022-10-14T01:55:17;100744.72;;;22.27;100.00
44992;BME280;56865;51.618;7.406;2022-10-14T01:57:47;100734.53;;;22.18;100.00
44992;BME280;56865;51.618;7.406;2022-10-14T02:00:18;100731.97;;;22.16;100.00
44992;BME280;56865;51.618;7.406;2022-10-14T02:02:50;100732.44;;;22.34;100.00
44992;BME280;56865;51.618;7.406;2022-10-14T02:05:21;100735.03;;;22.37;100.00
44992;BME280;56865;51.618;7.406;2022-10-14T02:07:55;100726.41;;;22.33;100.00
44992;BME280;56865;51.618;7.406;2022-10-14T02:10:29;100729.44;;;22.55;100.00
44992;BME280;56865;51.618;7.406;2022-10-14T02:13:28;100726.81;;;22.57;100.00
44992;BME280;56865;51.618;7.406;2022-10-14T02:16:05;100720.66;;;22.61;100.00
44992;BME280;56865;51.618;7.406;2022-10-14T02:18:41;100724.97;;;22.62;100.00
44992;BME280;56865;51.618;7.406;2022-10-14T02:21:16;100724.47;;;22.45;100.00
44992;BME280;56865;51.618;7.406;2022-10-14T02:23:49;100718.75;;;22.69;100.00
44992;BME280;56865;51.618;7.406;2022-10-14T02:26:20;100717.03;;;22.68;100.00
44992;BME280;56865;51.618;7.406;2022-10-14T02:28:50;100707.03;;;22.50;100.00
44992;BME280;56865;51.618;7.406;2022-10-14T02:31:21;100709.69;;;22.48;100.00
44992;BME280;56865;51.618;7.406;2022-10-14T02:33:55;100707.00;;;22.53;100.00
44992;BME280;56865;51.618;7.406;2022-10-14T02:36:25;100701.66;;;22.58;100.00
44992;BME280;56865;51.618;7.406;2022-10-14T02:38:56;100696.66;;;22.50;100.00
44992;BME280;56865;51.618;7.406;2022-10-14T02:41:29;100691.28;;;22.58;100.00
44992;BME280;56865;51.618;7.406;2022-10-14T02:43:59;100695.56;;;22.60;100.00
44992;BME280;56865;51.618;7.406;2022-10-14T02:46:29;100690.75;;;22.43;100.00
44992;BME280;56865;51.618;7.406;2022-10-14T02:49:01;100688.81;;;22.51;100.00
44992;BME280;56865;51.618;7.406;2022-10-14T02:51:31;100690.84;;;22.38;100.00
44992;BME280;56865;51.618;7.406;2022-10-14T02:54:00;100693.97;;;22.54;100.00
44992;BME280;56865;51.618;7.406;2022-10-14T02:56:30;100692.13;;;22.16;100.00
44992;BME280;56865;51.618;7.406;2022-10-14T02:59:00;100685.38;;;22.51;100.00
44992;BME280;56865;51.618;7.406;2022-10-14T03:01:29;100676.78;;;22.47;100.00
44992;BME280;56865;51.618;7.406;2022-10-14T03:04:05;100673.44;;;22.42;100.00
44992;BME280;56865;51.618;7.406;2022-10-14T03:06:35;100669.97;;;22.43;100.00
44992;BME280;56865;51.618;7.406;2022-10-14T03:09:04;100661.44;;;22.35;100.00
44992;BME280;56865;51.618;7.406;2022-10-14T03:11:34;100669.47;;;22.24;100.00
44992;BME280;56865;51.618;7.406;2022-10-14T03:14:04;100667.06;;;22.16;100.00
44992;BME280;56865;51.618;7.406;2022-10-14T03:16:33;100661.91;;;22.13;100.00
44992;BME280;56865;51.618;7.406;2022-10-14T03:19:05;100662.16;;;22.01;100.00
44992;BME280;56865;51.618;7.406;2022-10-14T03:21:35;100654.00;;;22.19;100.00
44992;BME280;56865;51.618;7.406;2022-10-14T03:24:05;100656.66;;;22.15;100.00
44992;BME280;56865;51.618;7.406;2022-10-14T03:26:35;100663.38;;;22.27;100.00
44992;BME280;56865;51.618;7.406;2022-10-14T03:29:05;100658.75;;;22.41;100.00
44992;BME280;56865;51.618;7.406;2022-10-14T03:31:34;100660.13;;;22.15;100.00
44992;BME280;56865;51.618;7.406;2022-10-14T03:34:07;100662.38;;;22.32;100.00
44992;BME280;56865;51.618;7.406;2022-10-14T03:36:37;100655.63;;;22.25;100.00
44992;BME280;56865;51.618;7.406;2022-10-14T03:39:08;100648.88;;;22.16;100.00
44992;BME280;56865;51.618;7.406;2022-10-14T03:41:38;100651.53;;;22.13;100.00
44992;BME280;56865;51.618;7.406;2022-10-14T03:44:07;100649.41;;;22.31;100.00
44992;BME280;56865;51.618;7.406;2022-10-14T03:46:37;100649.06;;;22.07;100.00
44992;BME280;56865;51.618;7.406;2022-10-14T03:49:09;100652.09;;;22.26;100.00
44992;BME280;56865;51.618;7.406;2022-10-14T03:51:39;100652.84;;;22.33;100.00
44992;BME280;56865;51.618;7.406;2022-10-14T03:54:08;100644.56;;;22.14;100.00
44992;BME280;56865;51.618;7.406;2022-10-14T03:56:38;100647.56;;;21.94;100.00
44992;BME280;56865;51.618;7.406;2022-10-14T03:59:08;100649.41;;;22.31;100.00
44992;BME280;56865;51.618;7.406;2022-10-14T04:01:37;100643.47;;;22.26;100.00
44992;BME280;56865;51.618;7.406;2022-10-14T04:04:10;100637.88;;;22.46;100.00
44992;BME280;56865;51.618;7.406;2022-10-14T04:06:39;100637.50;;;22.61;100.00
44992;BME280;56865;51.618;7.406;2022-10-14T04:09:09;100653.69;;;22.33;100.00
44992;BME280;56865;51.618;7.406;2022-10-14T04:11:38;100646.72;;;22.37;100.00
44992;BME280;56865;51.618;7.406;2022-10-14T04:14:08;100645.84;;;22.35;100.00
44992;BME280;56865;51.618;7.406;2022-10-14T04:16:38;100642.31;;;22.40;100.00
44992;BME280;56865;51.618;7.406;2022-10-14T04:19:14;100647.56;;;22.36;100.00
44992;BME280;56865;51.618;7.406;2022-10-14T04:21:43;100650.00;;;22.03;100.00
44992;BME280;56865;51.618;7.406;2022-10-14T04:24:13;100643.72;;;22.13;100.00
44992;BME280;56865;51.618;7.406;2022-10-14T04:26:43;100643.00;;;22.06;100.00
44992;BME280;56865;51.618;7.406;2022-10-14T04:29:13;100637.56;;;22.17;100.00
44992;BME280;56865;51.618;7.406;2022-10-14T04:31:43;100642.19;;;22.04;100.00
44992;BME280;56865;51.618;7.406;2022-10-14T04:34:15;100639.25;;;22.21;100.00
44992;BME280;56865;51.618;7.406;2022-10-14T04:36:45;100642.09;;;22.09;100.00
44992;BME280;56865;51.618;7.406;2022-10-14T04:39:15;100639.06;;;21.87;100.00
44992;BME280;56865;51.618;7.406;2022-10-14T04:41:45;100634.31;;;22.09;100.00
44992;BME280;56865;51.618;7.406;2022-10-14T04:44:15;100629.16;;;22.07;100.00
44992;BME280;56865;51.618;7.406;2022-10-14T04:46:45;100624.97;;;22.00;100.00
44992;BME280;56865;51.618;7.406;2022-10-14T04:49:17;100623.88;;;22.11;100.00
44992;BME280;56865;51.618;7.406;2022-10-14T04:51:48;100629.00;;;22.15;100.00
44992;BME280;56865;51.618;7.406;2022-10-14T04:54:18;100633.88;;;22.29;100.00
44992;BME280;56865;51.618;7.406;2022-10-14T04:56:48;100633.25;;;22.18;100.00
44992;BME280;56865;51.618;7.406;2022-10-14T04:59:18;100627.84;;;22.27;100.00
44992;BME280;56865;51.618;7.406;2022-10-14T05:01:48;100631.16;;;22.34;100.00
44992;BME280;56865;51.618;7.406;2022-10-14T05:04:21;100640.69;;;22.33;100.00
44992;BME280;56865;51.618;7.406;2022-10-14T05:06:50;100636.25;;;22.42;100.00
44992;BME280;56865;51.618;7.406;2022-10-14T05:09:20;100631.34;;;22.26;100.00
44992;BME280;56865;51.618;7.406;2022-10-14T05:11:50;100635.94;;;22.13;100.00
44992;BME280;56865;51.618;7.406;2022-10-14T05:14:20;100634.19;;;22.14;100.00
44992;BME280;56865;51.618;7.406;2022-10-14T05:16:50;100632.16;;;22.28;100.00
44992;BME280;56865;51.618;7.406;2022-10-14T05:19:22;100627.66;;;21.96;100.00
44992;BME280;56865;51.618;7.406;2022-10-14T05:21:52;100624.59;;;22.17;100.00
44992;BME280;56865;51.618;7.406;2022-10-14T05:24:22;100617.56;;;22.22;100.00
44992;BME280;56865;51.618;7.406;2022-10-14T05:26:51;100624.72;;;22.13;100.00
44992;BME280;56865;51.618;7.406;2022-10-14T05:29:21;100623.66;;;22.21;100.00
44992;BME280;56865;51.618;7.406;2022-10-14T05:31:51;100620.81;;;21.91;100.00
44992;BME280;56865;51.618;7.406;2022-10-14T05:34:23;100616.72;;;22.22;100.00
44992;BME280;56865;51.618;7.406;2022-10-14T05:36:53;100607.28;;;22.18;100.00
44992;BME280;56865;51.618;7.406;2022-10-14T05:39:23;100607.88;;;21.90;100.00
44992;BME280;56865;51.618;7.406;2022-10-14T05:41:52;100608.56;;;21.98;100.00
44992;BME280;56865;51.618;7.406;2022-10-14T05:44:22;100600.72;;;22.01;100.00
44992;BME280;56865;51.618;7.406;2022-10-14T05:46:52;100606.69;;;22.06;100.00
44992;BME280;56865;51.618;7.406;2022-10-14T05:49:24;100604.13;;;22.05;100.00
44992;BME280;56865;51.618;7.406;2022-10-14T05:51:54;100598.06;;;22.04;100.00
44992;BME280;56865;51.618;7.406;2022-10-14T05:54:23;100595.03;;;21.84;100.00
44992;BME280;56865;51.618;7.406;2022-10-14T05:56:53;100591.78;;;21.74;100.00
44992;BME280;56865;51.618;7.406;2022-10-14T05:59:23;100589.22;;;21.72;100.00
44992;BME280;56865;51.618;7.406;2022-10-14T06:01:55;100587.09;;;21.91;100.00
44992;BME280;56865;51.618;7.406;2022-10-14T06:04:27;100581.72;;;21.99;100.00
44992;BME280;56865;51.618;7.406;2022-10-14T06:06:57;100581.59;;;22.05;100.00
44992;BME280;56865;51.618;7.406;2022-10-14T06:09:29;100583.78;;;21.85;100.00
44992;BME280;56865;51.618;7.406;2022-10-14T06:11:59;100577.66;;;21.87;100.00
44992;BME280;56865;51.618;7.406;2022-10-14T06:14:28;100585.91;;;22.06;100.00
44992;BME280;56865;51.618;7.406;2022-10-14T06:16:58;100578.72;;;21.79;100.00
44992;BME280;56865;51.618;7.406;2022-10-14T06:19:32;100579.97;;;22.01;100.00
44992;BME280;56865;51.618;7.406;2022-10-14T06:22:01;100574.06;;;21.93;100.00
44992;BME280;56865;51.618;7.406;2022-10-14T06:24:31;100579.84;;;22.07;100.00
44992;BME280;56865;51.618;7.406;2022-10-14T06:27:01;100576.75;;;21.90;100.00
44992;BME280;56865;51.618;7.406;2022-10-14T06:29:31;100568.66;;;22.02;100.00
44992;BME280;56865;51.618;7.406;2022-10-14T06:32:03;100572.53;;;22.25;100.00
44992;BME280;56865;51.618;7.406;2022-10-14T06:34:36;100569.75;;;22.31;100.00
44992;BME280;56865;51.618;7.406;2022-10-14T06:37:05;100567.34;;;22.25;100.00
44992;BME280;56865;51.618;7.406;2022-10-14T06:39:35;100560.31;;;21.89;100.00
44992;BME280;56865;51.618;7.406;2022-10-14T06:42:07;100550.63;;;22.37;100.00
44992;BME280;56865;51.618;7.406;2022-10-14T06:44:38;100555.00;;;22.33;100.00
44992;BME280;56865;51.618;7.406;2022-10-14T06:47:08;100550.97;;;22.20;100.00
44992;BME280;56865;51.618;7.406;2022-10-14T06:49:40;100553.44;;;22.26;100.00
44992;BME280;56865;51.618;7.406;2022-10-14T06:52:10;100541.47;;;22.20;100.00
44992;BME280;56865;51.618;7.406;2022-10-14T06:54:39;100541.19;;;22.31;100.00
44992;BME280;56865;51.618;7.406;2022-10-14T06:57:13;100544.19;;;22.14;100.00
44992;BME280;56865;51.618;7.406;2022-10-14T06:59:43;100542.25;;;22.22;100.00
44992;BME280;56865;51.618;7.406;2022-10-14T07:02:12;100540.19;;;22.38;100.00
44992;BME280;56865;51.618;7.406;2022-10-14T07:04:45;100536.38;;;22.53;100.00
44992;BME280;56865;51.618;7.406;2022-10-14T07:07:14;100554.06;;;21.98;100.00
44992;BME280;56865;51.618;7.406;2022-10-14T07:09:44;100542.91;;;22.32;100.00
44992;BME280;56865;51.618;7.406;2022-10-14T07:12:13;100541.47;;;22.58;100.00
44992;BME280;56865;51.618;7.406;2022-10-14T07:14:43;100542.22;;;22.63;100.00
44992;BME280;56865;51.618;7.406;2022-10-14T07:17:12;100543.78;;;22.31;100.00
44992;BME280;56865;51.618;7.406;2022-10-14T07:19:42;100541.19;;;22.33;100.00
44992;BME280;56865;51.618;7.406;2022-10-14T07:22:14;100546.13;;;22.44;100.00
44992;BME280;56865;51.618;7.406;2022-10-14T07:24:44;100547.25;;;22.69;100.00
44992;BME280;56865;51.618;7.406;2022-10-14T07:27:13;100549.44;;;22.85;100.00
44992;BME280;56865;51.618;7.406;2022-10-14T07:29:46;100553.75;;;22.86;100.00
44992;BME280;56865;51.618;7.406;2022-10-14T07:32:25;100549.13;;;22.64;100.00
44992;BME280;56865;51.618;7.406;2022-10-14T07:37:48;100543.94;;;22.63;100.00
44992;BME280;56865;51.618;7.406;2022-10-14T07:40:18;100542.91;;;22.70;100.00
44992;BME280;56865;51.618;7.406;2022-10-14T07:42:48;100543.88;;;22.99;100.00
44992;BME280;56865;51.618;7.406;2022-10-14T07:45:17;100534.75;;;22.49;100.00
44992;BME280;56865;51.618;7.406;2022-10-14T07:47:48;100527.72;;;22.15;100.00
44992;BME280;56865;51.618;7.406;2022-10-14T07:50:18;100535.44;;;22.56;100.00
44992;BME280;56865;51.618;7.406;2022-10-14T07:52:51;100529.28;;;22.60;100.00
44992;BME280;56865;51.618;7.406;2022-10-14T07:55:25;100536.19;;;22.94;100.00
44992;BME280;56865;51.618;7.406;2022-10-14T07:57:55;100527.63;;;22.92;100.00
44992;BME280;56865;51.618;7.406;2022-10-14T08:00:24;100528.19;;;23.03;100.00
44992;BME280;56865;51.618;7.406;2022-10-14T08:02:54;100533.59;;;22.96;100.00
44992;BME280;56865;51.618;7.406;2022-10-14T08:05:23;100541.09;;;23.07;100.00
44992;BME280;56865;51.618;7.406;2022-10-14T08:08:11;100547.53;;;22.92;100.00
44992;BME280;56865;51.618;7.406;2022-10-14T08:10:40;100542.75;;;22.76;100.00
44992;BME280;56865;51.618;7.406;2022-10-14T08:13:10;100525.31;;;22.80;100.00
44992;BME280;56865;51.618;7.406;2022-10-14T08:15:40;100532.41;;;22.75;100.00
44992;BME280;56865;51.618;7.406;2022-10-14T08:18:10;100540.97;;;23.11;100.00
44992;BME280;56865;51.618;7.406;2022-10-14T08:20:39;100530.63;;;22.77;100.00
44992;BME280;56865;51.618;7.406;2022-10-14T08:23:12;100530.09;;;22.97;100.00
44992;BME280;56865;51.618;7.406;2022-10-14T08:25:45;100533.06;;;23.14;100.00
44992;BME280;56865;51.618;7.406;2022-10-14T08:28:15;100523.09;;;22.99;100.00
44992;BME280;56865;51.618;7.406;2022-10-14T08:30:44;100530.91;;;22.99;100.00
44992;BME280;56865;51.618;7.406;2022-10-14T08:33:14;100526.22;;;23.12;100.00
44992;BME280;56865;51.618;7.406;2022-10-14T08:35:44;100529.84;;;23.06;100.00
44992;BME280;56865;51.618;7.406;2022-10-14T08:38:21;100534.44;;;22.96;100.00
44992;BME280;56865;51.618;7.406;2022-10-14T08:41:01;100523.34;;;23.23;100.00
44992;BME280;56865;51.618;7.406;2022-10-14T08:43:34;100524.84;;;23.31;100.00
44992;BME280;56865;51.618;7.406;2022-10-14T08:46:06;100524.34;;;23.50;100.00
44992;BME280;56865;51.618;7.406;2022-10-14T08:48:41;100528.47;;;23.57;100.00
44992;BME280;56865;51.618;7.406;2022-10-14T08:51:12;100521.50;;;23.58;100.00
44992;BME280;56865;51.618;7.406;2022-10-14T08:53:47;100518.22;;;23.21;100.00
44992;BME280;56865;51.618;7.406;2022-10-14T08:56:17;100518.31;;;23.78;100.00
44992;BME280;56865;51.618;7.406;2022-10-14T08:58:48;100518.44;;;24.03;100.00
44992;BME280;56865;51.618;7.406;2022-10-14T09:01:21;100515.75;;;23.76;100.00
44992;BME280;56865;51.618;7.406;2022-10-14T09:03:51;100512.16;;;23.80;100.00
44992;BME280;56865;51.618;7.406;2022-10-14T09:06:23;100515.00;;;23.10;100.00
44992;BME280;56865;51.618;7.406;2022-10-14T09:08:57;100504.28;;;23.82;100.00
44992;BME280;56865;51.618;7.406;2022-10-14T09:11:33;100506.44;;;23.69;100.00
44992;BME280;56865;51.618;7.406;2022-10-14T09:14:06;100499.91;;;23.54;100.00
44992;BME280;56865;51.618;7.406;2022-10-14T09:16:37;100501.81;;;23.49;100.00
44992;BME280;56865;51.618;7.406;2022-10-14T09:19:11;100496.78;;;23.43;100.00
44992;BME280;56865;51.618;7.406;2022-10-14T09:21:44;100480.41;;;23.69;100.00
44992;BME280;56865;51.618;7.406;2022-10-14T09:24:22;100478.63;;;23.10;100.00
44992;BME280;56865;51.618;7.406;2022-10-14T09:26:52;100480.63;;;23.91;100.00
44992;BME280;56865;51.618;7.406;2022-10-14T09:29:23;100475.94;;;24.02;100.00
44992;BME280;56865;51.618;7.406;2022-10-14T09:31:54;100475.00;;;24.04;100.00
44992;BME280;56865;51.618;7.406;2022-10-14T09:34:27;100469.22;;;23.65;100.00
44992;BME280;56865;51.618;7.406;2022-10-14T09:36:59;100471.47;;;24.06;100.00
44992;BME280;56865;51.618;7.406;2022-10-14T09:39:37;100464.78;;;23.99;100.00
44992;BME280;56865;51.618;7.406;2022-10-14T09:42:11;100458.88;;;23.92;100.00
44992;BME280;56865;51.618;7.406;2022-10-14T09:44:42;100455.75;;;24.09;100.00
44992;BME280;56865;51.618;7.406;2022-10-14T09:47:12;100460.59;;;23.63;100.00
44992;BME280;56865;51.618;7.406;2022-10-14T09:49:45;100453.84;;;24.14;100.00
44992;BME280;56865;51.618;7.406;2022-10-14T09:52:19;100457.09;;;24.48;100.00
44992;BME280;56865;51.618;7.406;2022-10-14T09:54:56;100451.59;;;24.30;100.00
44992;BME280;56865;51.618;7.406;2022-10-14T09:57:27;100456.28;;;24.46;100.00
44992;BME280;56865;51.618;7.406;2022-10-14T09:59:57;100454.34;;;23.99;100.00
44992;BME280;56865;51.618;7.406;2022-10-14T10:02:33;100445.59;;;24.01;100.00
44992;BME280;56865;51.618;7.406;2022-10-14T10:05:16;100450.84;;;24.27;100.00
44992;BME280;56865;51.618;7.406;2022-10-14T10:07:58;100453.78;;;24.43;100.00
44992;BME280;56865;51.618;7.406;2022-10-14T10:10:31;100447.19;;;24.06;100.00
44992;BME280;56865;51.618;7.406;2022-10-14T10:13:02;100447.78;;;24.41;100.00
44992;BME280;56865;51.618;7.406;2022-10-14T10:15:31;100443.09;;;24.25;100.00
44992;BME280;56865;51.618;7.406;2022-10-14T10:18:01;100443.47;;;24.40;100.00
44992;BME280;56865;51.618;7.406;2022-10-14T10:20:48;100439.41;;;24.31;100.00
44992;BME280;56865;51.618;7.406;2022-10-14T10:23:32;100431.94;;;24.47;100.00
44992;BME280;56865;51.618;7.406;2022-10-14T10:26:15;100425.69;;;24.26;100.00
44992;BME280;56865;51.618;7.406;2022-10-14T10:28:47;100427.19;;;24.58;100.00
44992;BME280;56865;51.618;7.406;2022-10-14T10:31:24;100424.59;;;24.58;100.00
44992;BME280;56865;51.618;7.406;2022-10-14T10:33:59;100430.34;;;24.43;100.00
44992;BME280;56865;51.618;7.406;2022-10-14T10:36:33;100423.50;;;24.65;100.00
44992;BME280;56865;51.618;7.406;2022-10-14T10:39:09;100412.81;;;24.73;100.00
44992;BME280;56865;51.618;7.406;2022-10-14T10:41:52;100416.03;;;24.80;100.00
44992;BME280;56865;51.618;7.406;2022-10-14T10:44:36;100419.19;;;24.38;100.00
44992;BME280;56865;51.618;7.406;2022-10-14T10:47:13;100421.59;;;24.94;100.00
44992;BME280;56865;51.618;7.406;2022-10-14T10:50:01;100415.38;;;24.98;100.00
44992;BME280;56865;51.618;7.406;2022-10-14T10:52:36;100409.53;;;24.66;100.00
44992;BME280;56865;51.618;7.406;2022-10-14T10:55:12;100404.41;;;24.89;100.00
44992;BME280;56865;51.618;7.406;2022-10-14T10:57:51;100395.41;;;24.74;100.00
44992;BME280;56865;51.618;7.406;2022-10-14T11:00:24;100399.50;;;25.05;100.00
44992;BME280;56865;51.618;7.406;2022-10-14T11:02:58;100396.13;;;25.25;100.00
44992;BME280;56865;51.618;7.406;2022-10-14T11:08:29;100392.34;;;25.10;100.00
44992;BME280;56865;51.618;7.406;2022-10-14T11:11:20;100387.13;;;25.10;100.00
44992;BME280;56865;51.618;7.406;2022-10-14T11:14:10;100385.38;;;25.33;100.00
44992;BME280;56865;51.618;7.406;2022-10-14T11:16:44;100383.78;;;25.06;100.00
44992;BME280;56865;51.618;7.406;2022-10-14T11:19:19;100370.13;;;25.22;100.00
44992;BME280;56865;51.618;7.406;2022-10-14T11:21:53;100376.31;;;24.97;100.00
44992;BME280;56865;51.618;7.406;2022-10-14T11:24:32;100369.16;;;25.02;100.00
44992;BME280;56865;51.618;7.406;2022-10-14T11:27:05;100367.94;;;25.57;100.00
44992;BME280;56865;51.618;7.406;2022-10-14T11:30:06;100367.22;;;25.53;100.00
44992;BME280;56865;51.618;7.406;2022-10-14T11:32:43;100362.88;;;25.30;100.00
44992;BME280;56865;51.618;7.406;2022-10-14T11:35:19;100351.78;;;25.25;100.00
44992;BME280;56865;51.618;7.406;2022-10-14T11:37:56;100357.53;;;25.33;100.00
44992;BME280;56865;51.618;7.406;2022-10-14T11:40:31;100355.50;;;25.41;100.00
44992;BME280;56865;51.618;7.406;2022-10-14T11:43:07;100359.09;;;25.15;100.00
44992;BME280;56865;51.618;7.406;2022-10-14T11:45:44;100352.53;;;25.05;100.00
44992;BME280;56865;51.618;7.406;2022-10-14T11:48:24;100352.63;;;24.79;100.00
44992;BME280;56865;51.618;7.406;2022-10-14T11:50:57;100345.56;;;25.05;100.00
44992;BME280;56865;51.618;7.406;2022-10-14T11:53:34;100339.00;;;24.71;100.00
44992;BME280;56865;51.618;7.406;2022-10-14T11:56:08;100335.06;;;25.07;100.00
44992;BME280;56865;51.618;7.406;2022-10-14T11:58:40;100331.50;;;25.31;100.00
44992;BME280;56865;51.618;7.406;2022-10-14T12:01:16;100336.84;;;25.28;100.00
44992;BME280;56865;51.618;7.406;2022-10-14T12:03:50;100333.44;;;25.04;100.00
44992;BME280;56865;51.618;7.406;2022-10-14T12:06:25;100329.59;;;25.13;100.00
44992;BME280;56865;51.618;7.406;2022-10-14T12:08:58;100329.81;;;25.30;99.97
44992;BME280;56865;51.618;7.406;2022-10-14T12:11:29;100318.75;;;24.78;100.00
44992;BME280;56865;51.618;7.406;2022-10-14T12:14:01;100316.13;;;25.02;100.00
44992;BME280;56865;51.618;7.406;2022-10-14T12:16:38;100316.78;;;25.08;99.36
44992;BME280;56865;51.618;7.406;2022-10-14T12:19:09;100314.03;;;24.65;100.00
44992;BME280;56865;51.618;7.406;2022-10-14T12:21:42;100312.03;;;24.96;100.00
44992;BME280;56865;51.618;7.406;2022-10-14T12:24:17;100307.00;;;25.13;99.94
44992;BME280;56865;51.618;7.406;2022-10-14T12:26:51;100310.44;;;24.92;99.27
44992;BME280;56865;51.618;7.406;2022-10-14T12:29:21;100301.59;;;25.18;98.34
44992;BME280;56865;51.618;7.406;2022-10-14T12:34:39;100300.13;;;25.33;99.54
44992;BME280;56865;51.618;7.406;2022-10-14T12:42:51;100292.38;;;25.54;99.11
44992;BME280;56865;51.618;7.406;2022-10-14T12:45:23;100288.72;;;25.36;100.00
44992;BME280;56865;51.618;7.406;2022-10-14T12:48:01;100286.56;;;25.25;100.00
44992;BME280;56865;51.618;7.406;2022-10-14T12:50:36;100284.59;;;25.08;100.00
44992;BME280;56865;51.618;7.406;2022-10-14T12:53:06;100282.09;;;25.27;100.00
44992;BME280;56865;51.618;7.406;2022-10-14T12:55:46;100280.88;;;25.36;100.00
44992;BME280;56865;51.618;7.406;2022-10-14T12:58:21;100284.03;;;25.23;100.00
44992;BME280;56865;51.618;7.406;2022-10-14T13:00:52;100280.97;;;24.90;100.00
44992;BME280;56865;51.618;7.406;2022-10-14T13:03:23;100277.16;;;24.98;100.00
44992;BME280;56865;51.618;7.406;2022-10-14T13:06:24;100269.75;;;25.10;100.00
44992;BME280;56865;51.618;7.406;2022-10-14T13:11:32;100260.19;;;24.88;100.00
44992;BME280;56865;51.618;7.406;2022-10-14T13:14:16;100261.69;;;24.72;100.00
44992;BME280;56865;51.618;7.406;2022-10-14T13:16:56;100249.31;;;24.77;100.00
44992;BME280;56865;51.618;7.406;2022-10-14T13:25:00;100250.59;;;24.17;100.00
44992;BME280;56865;51.618;7.406;2022-10-14T13:27:38;100244.38;;;24.45;100.00
44992;BME280;56865;51.618;7.406;2022-10-14T13:30:11;100252.78;;;24.05;100.00
44992;BME280;56865;51.618;7.406;2022-10-14T13:32:44;100244.53;;;24.17;100.00
44992;BME280;56865;51.618;7.406;2022-10-14T13:35:17;100232.41;;;24.16;100.00
44992;BME280;56865;51.618;7.406;2022-10-14T13:37:52;100228.47;;;24.29;100.00
44992;BME280;56865;51.618;7.406;2022-10-14T13:40:25;100227.72;;;24.02;100.00
44992;BME280;56865;51.618;7.406;2022-10-14T13:43:05;100218.03;;;24.29;100.00